TimeCDT,TemperatureF,Dew PointF,Humidity,Sea Level PressureIn,VisibilityMPH,Wind Direction,Wind SpeedMPH,Gust SpeedMPH,PrecipitationIn,Events,Conditions,WindDirDegrees,DateUTC
12:52 AM,52.0,44.1,74,30.14,10.0,NNE,10.4,-,N/A,,Mostly Cloudy,20,2012-10-05 05:52:00
1:52 AM,53.1,44.1,71,30.14,10.0,NNE,12.7,-,N/A,,Overcast,20,2012-10-05 06:52:00
2:52 AM,51.8,42.8,71,30.17,10.0,NE,18.4,-,N/A,,Overcast,40,2012-10-05 07:52:00
3:52 AM,51.1,41.0,68,30.14,10.0,NNE,11.5,-,N/A,,Overcast,20,2012-10-05 08:52:00
4:52 AM,51.1,39.9,66,30.14,10.0,NE,12.7,-,0.00,Rain,Light Rain,40,2012-10-05 09:52:00
5:52 AM,50.0,43.0,77,30.14,10.0,NE,11.5,-,0.00,,Overcast,50,2012-10-05 10:52:00
6:52 AM,48.9,42.1,77,30.15,10.0,NNE,13.8,-,N/A,,Overcast,30,2012-10-05 11:52:00
6:59 AM,48.2,42.8,82,30.17,10.0,NNE,12.7,-,N/A,Thunderstorm,Thunderstorm,30,2012-10-05 11:59:00
7:52 AM,48.9,43.0,80,30.15,10.0,NNE,12.7,-,0.02,Rain-Thunderstorm,Light Thunderstorms and Rain,30,2012-10-05 12:52:00
8:13 AM,48.2,42.8,82,30.15,10.0,NE,12.7,-,0.00,Thunderstorm,Thunderstorm,40,2012-10-05 13:13:00
8:45 AM,48.2,42.8,82,30.17,10.0,NNE,10.4,-,N/A,,Overcast,20,2012-10-05 13:45:00
8:52 AM,48.0,44.1,86,30.16,10.0,North,13.8,-,0.00,,Overcast,10,2012-10-05 13:52:00
9:01 AM,46.4,44.6,93,30.16,9.0,NNE,13.8,-,0.00,Rain,Light Rain,30,2012-10-05 14:01:00
9:11 AM,46.4,44.6,93,30.17,10.0,NNE,12.7,-,0.00,Rain,Light Rain,30,2012-10-05 14:11:00
9:26 AM,46.4,44.6,93,30.17,8.0,NNE,12.7,-,0.00,Rain,Light Rain,20,2012-10-05 14:26:00
9:50 AM,46.4,44.6,93,30.17,5.0,North,9.2,-,0.01,Rain,Light Rain,10,2012-10-05 14:50:00
9:52 AM,46.9,45.0,93,30.17,4.0,NNE,11.5,-,0.01,Rain,Light Rain,20,2012-10-05 14:52:00
10:52 AM,46.9,44.1,90,30.15,2.5,NNE,17.3,-,0.00,Rain,Light Rain,20,2012-10-05 15:52:00
11:21 AM,46.4,44.6,93,30.14,3.0,NE,12.7,-,0.01,Rain,Light Rain,40,2012-10-05 16:21:00
11:52 AM,46.4,44.6,93,30.14,9.0,NE,11.5,21.9,N/A,Rain,Light Rain,50,2012-10-05 16:52:00
12:01 PM,48.2,44.6,87,30.14,9.0,NNE,15.0,20.7,0.00,,Overcast,30,2012-10-05 17:01:00
12:08 PM,46.4,44.6,93,30.14,4.0,NNE,12.7,20.7,0.00,Rain,Light Rain,30,2012-10-05 17:08:00
12:42 PM,46.4,44.6,93,30.15,2.5,NNE,10.4,21.9,0.00,Rain,Light Rain,20,2012-10-05 17:42:00
12:52 PM,46.9,44.1,90,30.15,2.0,NNE,11.5,20.7,0.01,Rain,Light Rain,30,2012-10-05 17:52:00
1:00 PM,46.4,44.6,93,30.14,1.8,NNE,17.3,-,0.00,Rain,Light Rain,30,2012-10-05 18:00:00
1:10 PM,46.4,44.6,93,30.16,2.0,North,12.7,-,0.02,Rain,Heavy Rain,10,2012-10-05 18:10:00
1:21 PM,46.4,44.6,93,30.15,3.0,NNE,15.0,-,0.03,Rain,Light Rain,20,2012-10-05 18:21:00
1:35 PM,46.4,44.6,93,30.14,5.0,NNE,13.8,-,0.05,Rain,Light Rain,20,2012-10-05 18:35:00
1:43 PM,46.4,44.6,93,30.14,4.0,NNE,12.7,-,0.05,Rain,Light Rain,20,2012-10-05 18:43:00
1:52 PM,46.0,44.1,93,30.15,4.0,NNE,13.8,-,0.05,Rain,Light Rain,20,2012-10-05 18:52:00
2:52 PM,46.0,44.1,93,30.17,3.0,North,16.1,-,0.01,Rain,Light Rain,10,2012-10-05 19:52:00
3:00 PM,44.6,42.8,93,30.16,2.5,North,18.4,-,0.00,Rain,Light Rain,10,2012-10-05 20:00:00
3:07 PM,46.4,42.8,87,30.16,3.0,North,17.3,23.0,0.01,Rain,Light Rain,10,2012-10-05 20:07:00
3:52 PM,44.1,41.0,89,30.17,10.0,North,15.0,-,0.01,,Overcast,10,2012-10-05 20:52:00
4:24 PM,44.6,41.0,87,30.19,10.0,North,10.4,-,0.00,Rain,Light Rain,360,2012-10-05 21:24:00
4:35 PM,44.6,41.0,87,30.18,10.0,North,12.7,-,0.00,,Overcast,10,2012-10-05 21:35:00
4:42 PM,44.6,41.0,87,30.18,10.0,North,16.1,20.7,0.00,,Overcast,360,2012-10-05 21:42:00
4:52 PM,44.1,39.0,82,30.20,10.0,North,18.4,26.5,0.00,,Overcast,10,2012-10-05 21:52:00
4:59 PM,44.6,39.2,81,30.19,10.0,North,15.0,26.5,N/A,,Overcast,10,2012-10-05 21:59:00
5:45 PM,44.6,39.2,81,30.19,10.0,North,9.2,19.6,N/A,,Overcast,10,2012-10-05 22:45:00
5:52 PM,44.1,39.0,82,30.20,10.0,NNE,15.0,-,N/A,,Overcast,20,2012-10-05 22:52:00
6:15 PM,44.6,39.2,81,30.19,10.0,NNE,12.7,-,N/A,,Overcast,20,2012-10-05 23:15:00
6:22 PM,44.6,39.2,81,30.19,10.0,NNE,12.7,-,N/A,,Overcast,20,2012-10-05 23:22:00
6:52 PM,43.0,37.9,82,30.21,10.0,NNE,12.7,-,N/A,,Clear,20,2012-10-05 23:52:00
7:52 PM,41.0,36.0,82,30.24,10.0,North,8.1,-,N/A,,Clear,360,2012-10-06 00:52:00
8:52 PM,39.9,36.0,86,30.25,10.0,North,3.5,-,N/A,,Clear,10,2012-10-06 01:52:00
9:52 PM,37.0,35.1,93,30.27,10.0,NNW,6.9,-,N/A,,Clear,330,2012-10-06 02:52:00
10:52 PM,37.0,35.1,93,30.26,10.0,NNW,3.5,-,N/A,,Clear,330,2012-10-06 03:52:00
11:52 PM,37.0,34.0,89,30.26,10.0,North,4.6,-,N/A,,Clear,350,2012-10-06 04:52:00